sensor_id;sensor_type;location;lat;lon;timestamp;P1;durP1;ratioP1;P2;durP2;ratioP2
15408;SDS011;7803;48.130;13.788;2022-10-17T00:01:22;8.35;;;7.55;;
15408;SDS011;7803;48.130;13.788;2022-10-17T00:04:24;7.72;;;7.03;;
15408;SDS011;7803;48.130;13.788;2022-10-17T00:07:28;7.78;;;7.07;;
15408;SDS011;7803;48.130;13.788;2022-10-17T00:10:31;8.45;;;7.45;;
15408;SDS011;7803;48.130;13.788;2022-10-17T00:13:33;8.65;;;7.82;;
15408;SDS011;7803;48.130;13.788;2022-10-17T00:16:35;8.77;;;7.88;;
15408;SDS011;7803;48.130;13.788;2022-10-17T00:19:37;8.20;;;7.40;;
15408;SDS011;7803;48.130;13.788;2022-10-17T00:22:41;8.52;;;7.72;;
15408;SDS011;7803;48.130;13.788;2022-10-17T00:25:43;9.20;;;8.32;;
15408;SDS011;7803;48.130;13.788;2022-10-17T00:28:45;8.57;;;7.72;;
15408;SDS011;7803;48.130;13.788;2022-10-17T00:31:48;9.25;;;8.35;;
15408;SDS011;7803;48.130;13.788;2022-10-17T00:34:50;9.15;;;8.25;;
15408;SDS011;7803;48.130;13.788;2022-10-17T00:37:53;9.43;;;8.52;;
15408;SDS011;7803;48.130;13.788;2022-10-17T00:40:55;9.73;;;8.45;;
15408;SDS011;7803;48.130;13.788;2022-10-17T00:43:58;9.57;;;8.57;;
15408;SDS011;7803;48.130;13.788;2022-10-17T00:47:02;10.35;;;9.32;;
15408;SDS011;7803;48.130;13.788;2022-10-17T00:50:07;9.77;;;8.85;;
15408;SDS011;7803;48.130;13.788;2022-10-17T00:53:13;9.35;;;8.40;;
15408;SDS011;7803;48.130;13.788;2022-10-17T00:56:16;10.00;;;9.05;;
15408;SDS011;7803;48.130;13.788;2022-10-17T00:59:19;10.35;;;9.27;;
15408;SDS011;7803;48.130;13.788;2022-10-17T01:02:23;10.18;;;9.20;;
15408;SDS011;7803;48.130;13.788;2022-10-17T01:05:25;10.23;;;9.27;;
15408;SDS011;7803;48.130;13.788;2022-10-17T01:08:28;10.57;;;9.57;;
15408;SDS011;7803;48.130;13.788;2022-10-17T01:11:31;10.68;;;9.68;;
15408;SDS011;7803;48.130;13.788;2022-10-17T01:14:41;10.73;;;9.73;;
15408;SDS011;7803;48.130;13.788;2022-10-17T01:17:58;10.68;;;9.68;;
15408;SDS011;7803;48.130;13.788;2022-10-17T01:28:18;11.32;;;10.20;;
15408;SDS011;7803;48.130;13.788;2022-10-17T01:31:40;10.90;;;9.90;;
15408;SDS011;7803;48.130;13.788;2022-10-17T01:34:49;11.90;;;10.75;;
15408;SDS011;7803;48.130;13.788;2022-10-17T01:37:58;11.45;;;10.43;;
15408;SDS011;7803;48.130;13.788;2022-10-17T01:41:06;11.68;;;10.57;;
15408;SDS011;7803;48.130;13.788;2022-10-17T01:44:16;11.95;;;10.77;;
15408;SDS011;7803;48.130;13.788;2022-10-17T01:47:25;12.40;;;11.20;;
15408;SDS011;7803;48.130;13.788;2022-10-17T01:50:31;12.13;;;10.93;;
15408;SDS011;7803;48.130;13.788;2022-10-17T01:53:36;12.65;;;11.45;;
15408;SDS011;7803;48.130;13.788;2022-10-17T01:56:43;12.60;;;11.40;;
15408;SDS011;7803;48.130;13.788;2022-10-17T01:59:48;12.25;;;11.05;;
15408;SDS011;7803;48.130;13.788;2022-10-17T02:02:57;13.43;;;12.13;;
15408;SDS011;7803;48.130;13.788;2022-10-17T02:06:01;12.75;;;11.55;;
15408;SDS011;7803;48.130;13.788;2022-10-17T02:09:14;12.10;;;10.93;;
15408;SDS011;7803;48.130;13.788;2022-10-17T02:12:22;12.50;;;11.38;;
15408;SDS011;7803;48.130;13.788;2022-10-17T02:15:41;12.65;;;11.45;;
15408;SDS011;7803;48.130;13.788;2022-10-17T02:22:33;12.23;;;11.02;;
15408;SDS011;7803;48.130;13.788;2022-10-17T02:25:40;13.23;;;12.00;;
15408;SDS011;7803;48.130;13.788;2022-10-17T02:28:46;13.38;;;12.18;;
15408;SDS011;7803;48.130;13.788;2022-10-17T02:31:57;13.65;;;12.45;;
15408;SDS011;7803;48.130;13.788;2022-10-17T02:35:04;13.40;;;12.10;;
15408;SDS011;7803;48.130;13.788;2022-10-17T02:38:09;13.20;;;11.90;;
15408;SDS011;7803;48.130;13.788;2022-10-17T02:41:15;13.57;;;12.38;;
15408;SDS011;7803;48.130;13.788;2022-10-17T02:44:19;12.82;;;11.63;;
15408;SDS011;7803;48.130;13.788;2022-10-17T02:47:23;13.23;;;12.02;;
15408;SDS011;7803;48.130;13.788;2022-10-17T02:50:30;14.13;;;12.82;;
15408;SDS011;7803;48.130;13.788;2022-10-17T02:53:40;13.15;;;11.90;;
15408;SDS011;7803;48.130;13.788;2022-10-17T02:56:50;13.38;;;12.07;;
15408;SDS011;7803;48.130;13.788;2022-10-17T02:59:56;13.13;;;11.88;;
15408;SDS011;7803;48.130;13.788;2022-10-17T03:02:59;13.10;;;11.82;;
15408;SDS011;7803;48.130;13.788;2022-10-17T03:06:02;13.30;;;12.10;;
15408;SDS011;7803;48.130;13.788;2022-10-17T03:09:05;13.73;;;12.43;;
15408;SDS011;7803;48.130;13.788;2022-10-17T03:12:07;13.40;;;12.20;;
15408;SDS011;7803;48.130;13.788;2022-10-17T03:15:10;13.40;;;12.20;;
15408;SDS011;7803;48.130;13.788;2022-10-17T03:18:12;13.30;;;12.00;;
15408;SDS011;7803;48.130;13.788;2022-10-17T03:21:16;13.45;;;12.15;;
15408;SDS011;7803;48.130;13.788;2022-10-17T03:24:18;13.75;;;12.35;;
15408;SDS011;7803;48.130;13.788;2022-10-17T03:27:20;13.90;;;12.60;;
15408;SDS011;7803;48.130;13.788;2022-10-17T03:30:22;13.85;;;12.55;;
15408;SDS011;7803;48.130;13.788;2022-10-17T03:33:24;14.23;;;12.93;;
15408;SDS011;7803;48.130;13.788;2022-10-17T03:36:27;14.07;;;12.60;;
15408;SDS011;7803;48.130;13.788;2022-10-17T03:39:29;13.30;;;12.10;;
15408;SDS011;7803;48.130;13.788;2022-10-17T03:42:31;13.65;;;12.35;;
15408;SDS011;7803;48.130;13.788;2022-10-17T03:45:33;14.25;;;12.85;;
15408;SDS011;7803;48.130;13.788;2022-10-17T03:48:36;13.65;;;12.35;;
15408;SDS011;7803;48.130;13.788;2022-10-17T03:51:39;13.27;;;12.07;;
15408;SDS011;7803;48.130;13.788;2022-10-17T03:54:41;13.27;;;12.07;;
15408;SDS011;7803;48.130;13.788;2022-10-17T03:57:43;12.93;;;11.73;;
15408;SDS011;7803;48.130;13.788;2022-10-17T04:00:45;13.05;;;11.85;;
15408;SDS011;7803;48.130;13.788;2022-10-17T04:03:47;12.73;;;11.52;;
15408;SDS011;7803;48.130;13.788;2022-10-17T04:06:51;13.30;;;12.10;;
15408;SDS011;7803;48.130;13.788;2022-10-17T04:09:53;13.05;;;11.85;;
15408;SDS011;7803;48.130;13.788;2022-10-17T04:12:55;14.18;;;12.88;;
15408;SDS011;7803;48.130;13.788;2022-10-17T04:15:57;13.57;;;12.38;;
15408;SDS011;7803;48.130;13.788;2022-10-17T04:19:01;13.40;;;12.20;;
15408;SDS011;7803;48.130;13.788;2022-10-17T04:22:04;13.77;;;12.48;;
15408;SDS011;7803;48.130;13.788;2022-10-17T04:25:07;13.70;;;12.45;;
15408;SDS011;7803;48.130;13.788;2022-10-17T04:28:09;13.35;;;12.15;;
15408;SDS011;7803;48.130;13.788;2022-10-17T04:31:12;14.07;;;12.77;;
15408;SDS011;7803;48.130;13.788;2022-10-17T04:34:14;13.18;;;11.98;;
15408;SDS011;7803;48.130;13.788;2022-10-17T04:37:18;13.32;;;12.13;;
15408;SDS011;7803;48.130;13.788;2022-10-17T04:40:20;12.60;;;11.50;;
15408;SDS011;7803;48.130;13.788;2022-10-17T04:43:22;13.00;;;11.77;;
15408;SDS011;7803;48.130;13.788;2022-10-17T04:46:24;13.10;;;11.90;;
15408;SDS011;7803;48.130;13.788;2022-10-17T04:49:26;12.80;;;11.63;;
15408;SDS011;7803;48.130;13.788;2022-10-17T04:52:29;12.85;;;11.65;;
15408;SDS011;7803;48.130;13.788;2022-10-17T04:55:35;13.20;;;12.00;;
15408;SDS011;7803;48.130;13.788;2022-10-17T04:58:39;12.30;;;11.20;;
15408;SDS011;7803;48.130;13.788;2022-10-17T05:01:42;12.20;;;11.10;;
15408;SDS011;7803;48.130;13.788;2022-10-17T05:04:44;13.10;;;11.90;;
15408;SDS011;7803;48.130;13.788;2022-10-17T05:07:47;13.20;;;11.90;;
15408;SDS011;7803;48.130;13.788;2022-10-17T05:10:49;13.50;;;12.20;;
15408;SDS011;7803;48.130;13.788;2022-10-17T05:13:52;13.23;;;12.02;;
15408;SDS011;7803;48.130;13.788;2022-10-17T05:16:55;12.98;;;11.77;;
15408;SDS011;7803;48.130;13.788;2022-10-17T05:19:57;13.15;;;11.85;;
15408;SDS011;7803;48.130;13.788;2022-10-17T05:23:00;13.13;;;11.93;;
15408;SDS011;7803;48.130;13.788;2022-10-17T05:26:03;13.00;;;11.75;;
15408;SDS011;7803;48.130;13.788;2022-10-17T05:29:05;12.20;;;11.10;;
15408;SDS011;7803;48.130;13.788;2022-10-17T05:32:07;13.23;;;12.05;;
15408;SDS011;7803;48.130;13.788;2022-10-17T05:35:09;12.20;;;11.10;;
15408;SDS011;7803;48.130;13.788;2022-10-17T05:38:12;12.80;;;11.60;;
15408;SDS011;7803;48.130;13.788;2022-10-17T05:41:14;12.57;;;11.48;;
15408;SDS011;7803;48.130;13.788;2022-10-17T05:44:16;12.63;;;11.52;;
15408;SDS011;7803;48.130;13.788;2022-10-17T05:47:18;12.35;;;11.25;;
15408;SDS011;7803;48.130;13.788;2022-10-17T05:50:20;12.32;;;11.23;;
15408;SDS011;7803;48.130;13.788;2022-10-17T05:53:25;12.23;;;11.13;;
15408;SDS011;7803;48.130;13.788;2022-10-17T05:56:30;12.18;;;11.07;;
15408;SDS011;7803;48.130;13.788;2022-10-17T05:59:32;11.82;;;10.77;;
15408;SDS011;7803;48.130;13.788;2022-10-17T06:02:34;12.50;;;11.40;;
15408;SDS011;7803;48.130;13.788;2022-10-17T06:05:36;12.02;;;10.93;;
15408;SDS011;7803;48.130;13.788;2022-10-17T06:08:39;12.80;;;11.60;;
15408;SDS011;7803;48.130;13.788;2022-10-17T06:11:42;11.85;;;10.82;;
15408;SDS011;7803;48.130;13.788;2022-10-17T06:14:44;11.60;;;10.60;;
15408;SDS011;7803;48.130;13.788;2022-10-17T06:17:46;11.93;;;10.82;;
15408;SDS011;7803;48.130;13.788;2022-10-17T06:20:48;11.95;;;10.93;;
15408;SDS011;7803;48.130;13.788;2022-10-17T06:23:51;11.82;;;10.73;;
15408;SDS011;7803;48.130;13.788;2022-10-17T06:26:53;11.73;;;10.73;;
15408;SDS011;7803;48.130;13.788;2022-10-17T06:29:56;11.23;;;10.23;;
15408;SDS011;7803;48.130;13.788;2022-10-17T06:32:58;11.77;;;10.77;;
15408;SDS011;7803;48.130;13.788;2022-10-17T06:36:00;11.38;;;10.38;;
15408;SDS011;7803;48.130;13.788;2022-10-17T06:39:04;11.70;;;10.68;;
15408;SDS011;7803;48.130;13.788;2022-10-17T06:42:06;11.63;;;10.63;;
15408;SDS011;7803;48.130;13.788;2022-10-17T06:45:08;11.20;;;10.18;;
15408;SDS011;7803;48.130;13.788;2022-10-17T06:48:11;11.32;;;10.32;;
15408;SDS011;7803;48.130;13.788;2022-10-17T06:51:13;11.68;;;10.55;;
15408;SDS011;7803;48.130;13.788;2022-10-17T06:54:16;11.80;;;10.65;;
15408;SDS011;7803;48.130;13.788;2022-10-17T06:57:18;11.85;;;10.80;;
15408;SDS011;7803;48.130;13.788;2022-10-17T07:00:20;11.13;;;10.18;;
15408;SDS011;7803;48.130;13.788;2022-10-17T07:03:22;11.43;;;10.30;;
15408;SDS011;7803;48.130;13.788;2022-10-17T07:06:24;10.88;;;9.88;;
15408;SDS011;7803;48.130;13.788;2022-10-17T07:09:28;11.38;;;10.38;;
15408;SDS011;7803;48.130;13.788;2022-10-17T07:12:30;11.18;;;10.15;;
15408;SDS011;7803;48.130;13.788;2022-10-17T07:15:34;10.80;;;9.80;;
15408;SDS011;7803;48.130;13.788;2022-10-17T07:18:37;10.57;;;9.57;;
15408;SDS011;7803;48.130;13.788;2022-10-17T07:21:40;10.93;;;9.95;;
15408;SDS011;7803;48.130;13.788;2022-10-17T07:24:43;10.85;;;9.95;;
15408;SDS011;7803;48.130;13.788;2022-10-17T07:27:45;10.60;;;9.70;;
15408;SDS011;7803;48.130;13.788;2022-10-17T07:30:49;10.82;;;9.82;;
15408;SDS011;7803;48.130;13.788;2022-10-17T07:33:51;10.25;;;9.35;;
15408;SDS011;7803;48.130;13.788;2022-10-17T07:36:53;10.27;;;9.38;;
15408;SDS011;7803;48.130;13.788;2022-10-17T07:39:56;10.45;;;9.55;;
15408;SDS011;7803;48.130;13.788;2022-10-17T07:42:58;10.95;;;9.90;;
15408;SDS011;7803;48.130;13.788;2022-10-17T07:46:01;10.60;;;9.68;;
15408;SDS011;7803;48.130;13.788;2022-10-17T07:49:04;10.20;;;9.20;;
15408;SDS011;7803;48.130;13.788;2022-10-17T07:52:06;10.13;;;9.10;;
15408;SDS011;7803;48.130;13.788;2022-10-17T07:55:11;10.25;;;9.35;;
15408;SDS011;7803;48.130;13.788;2022-10-17T07:58:13;10.57;;;9.63;;
15408;SDS011;7803;48.130;13.788;2022-10-17T08:01:16;9.73;;;8.93;;
15408;SDS011;7803;48.130;13.788;2022-10-17T08:04:18;9.50;;;8.70;;
15408;SDS011;7803;48.130;13.788;2022-10-17T08:07:20;9.93;;;9.02;;
15408;SDS011;7803;48.130;13.788;2022-10-17T08:10:24;9.63;;;8.82;;
15408;SDS011;7803;48.130;13.788;2022-10-17T08:13:28;9.20;;;8.45;;
15408;SDS011;7803;48.130;13.788;2022-10-17T08:16:30;9.48;;;8.68;;
15408;SDS011;7803;48.130;13.788;2022-10-17T08:19:32;9.93;;;9.02;;
15408;SDS011;7803;48.130;13.788;2022-10-17T08:22:34;10.45;;;9.55;;
15408;SDS011;7803;48.130;13.788;2022-10-17T08:25:38;9.93;;;9.02;;
15408;SDS011;7803;48.130;13.788;2022-10-17T08:28:40;9.38;;;8.57;;
15408;SDS011;7803;48.130;13.788;2022-10-17T08:31:42;9.95;;;9.05;;
15408;SDS011;7803;48.130;13.788;2022-10-17T08:34:44;10.13;;;9.23;;
15408;SDS011;7803;48.130;13.788;2022-10-17T08:37:46;9.40;;;8.60;;
15408;SDS011;7803;48.130;13.788;2022-10-17T08:40:50;9.30;;;8.50;;
15408;SDS011;7803;48.130;13.788;2022-10-17T08:43:55;9.63;;;8.73;;
15408;SDS011;7803;48.130;13.788;2022-10-17T08:47:08;8.77;;;8.07;;
15408;SDS011;7803;48.130;13.788;2022-10-17T08:50:13;9.05;;;8.32;;
15408;SDS011;7803;48.130;13.788;2022-10-17T08:53:23;9.00;;;8.20;;
15408;SDS011;7803;48.130;13.788;2022-10-17T08:56:32;8.63;;;7.93;;
15408;SDS011;7803;48.130;13.788;2022-10-17T08:59:38;9.25;;;8.45;;
15408;SDS011;7803;48.130;13.788;2022-10-17T09:02:43;9.40;;;8.50;;
15408;SDS011;7803;48.130;13.788;2022-10-17T09:05:55;9.07;;;8.35;;
15408;SDS011;7803;48.130;13.788;2022-10-17T09:09:13;9.10;;;8.35;;
15408;SDS011;7803;48.130;13.788;2022-10-17T09:12:27;9.73;;;8.82;;
15408;SDS011;7803;48.130;13.788;2022-10-17T09:15:56;8.90;;;8.10;;
15408;SDS011;7803;48.130;13.788;2022-10-17T09:19:13;9.20;;;8.40;;
15408;SDS011;7803;48.130;13.788;2022-10-17T09:22:20;9.02;;;8.23;;
15408;SDS011;7803;48.130;13.788;2022-10-17T09:25:26;9.30;;;8.50;;
15408;SDS011;7803;48.130;13.788;2022-10-17T09:28:31;8.85;;;8.07;;
15408;SDS011;7803;48.130;13.788;2022-10-17T09:31:38;8.93;;;8.15;;
15408;SDS011;7803;48.130;13.788;2022-10-17T09:34:45;8.80;;;8.10;;
15408;SDS011;7803;48.130;13.788;2022-10-17T09:37:48;9.27;;;8.48;;
15408;SDS011;7803;48.130;13.788;2022-10-17T09:40:52;8.60;;;7.80;;
15408;SDS011;7803;48.130;13.788;2022-10-17T09:43:57;8.40;;;7.70;;
15408;SDS011;7803;48.130;13.788;2022-10-17T09:47:14;8.48;;;7.78;;
15408;SDS011;7803;48.130;13.788;2022-10-17T09:50:24;8.30;;;7.60;;
15408;SDS011;7803;48.130;13.788;2022-10-17T09:53:29;8.82;;;8.05;;
15408;SDS011;7803;48.130;13.788;2022-10-17T10:00:00;8.80;;;8.00;;
15408;SDS011;7803;48.130;13.788;2022-10-17T10:03:08;8.95;;;8.20;;
15408;SDS011;7803;48.130;13.788;2022-10-17T10:06:15;8.27;;;7.55;;
15408;SDS011;7803;48.130;13.788;2022-10-17T10:09:20;9.07;;;8.27;;
15408;SDS011;7803;48.130;13.788;2022-10-17T10:12:28;8.77;;;7.97;;
15408;SDS011;7803;48.130;13.788;2022-10-17T10:15:34;8.90;;;8.10;;
15408;SDS011;7803;48.130;13.788;2022-10-17T10:18:40;10.20;;;9.15;;
15408;SDS011;7803;48.130;13.788;2022-10-17T10:21:46;9.30;;;8.50;;
15408;SDS011;7803;48.130;13.788;2022-10-17T10:25:11;9.77;;;8.88;;
15408;SDS011;7803;48.130;13.788;2022-10-17T10:28:15;9.38;;;8.57;;
15408;SDS011;7803;48.130;13.788;2022-10-17T10:31:23;9.40;;;8.50;;
15408;SDS011;7803;48.130;13.788;2022-10-17T10:34:31;9.77;;;8.88;;
15408;SDS011;7803;48.130;13.788;2022-10-17T10:37:36;9.38;;;8.57;;
15408;SDS011;7803;48.130;13.788;2022-10-17T10:40:43;9.50;;;8.60;;
15408;SDS011;7803;48.130;13.788;2022-10-17T10:43:48;9.55;;;8.73;;
15408;SDS011;7803;48.130;13.788;2022-10-17T10:47:05;10.85;;;8.95;;
15408;SDS011;7803;48.130;13.788;2022-10-17T10:50:17;12.13;;;9.10;;
15408;SDS011;7803;48.130;13.788;2022-10-17T10:53:28;11.85;;;9.10;;
15408;SDS011;7803;48.130;13.788;2022-10-17T10:56:39;10.05;;;9.00;;
15408;SDS011;7803;48.130;13.788;2022-10-17T10:59:46;9.70;;;8.70;;
15408;SDS011;7803;48.130;13.788;2022-10-17T11:02:59;9.30;;;8.40;;
15408;SDS011;7803;48.130;13.788;2022-10-17T11:06:11;9.82;;;8.82;;
15408;SDS011;7803;48.130;13.788;2022-10-17T11:09:22;9.27;;;8.20;;
15408;SDS011;7803;48.130;13.788;2022-10-17T11:12:32;10.68;;;8.82;;
15408;SDS011;7803;48.130;13.788;2022-10-17T11:15:39;9.45;;;8.52;;
15408;SDS011;7803;48.130;13.788;2022-10-17T11:18:47;10.27;;;8.10;;
15408;SDS011;7803;48.130;13.788;2022-10-17T11:21:57;9.20;;;8.30;;
15408;SDS011;7803;48.130;13.788;2022-10-17T11:25:13;9.32;;;8.48;;
15408;SDS011;7803;48.130;13.788;2022-10-17T11:28:22;8.95;;;8.10;;
15408;SDS011;7803;48.130;13.788;2022-10-17T11:31:26;9.40;;;8.38;;
15408;SDS011;7803;48.130;13.788;2022-10-17T11:34:35;9.35;;;8.45;;
15408;SDS011;7803;48.130;13.788;2022-10-17T11:37:43;9.43;;;8.52;;
15408;SDS011;7803;48.130;13.788;2022-10-17T11:40:50;9.02;;;8.23;;
15408;SDS011;7803;48.130;13.788;2022-10-17T11:43:56;8.68;;;7.93;;
15408;SDS011;7803;48.130;13.788;2022-10-17T11:47:04;8.63;;;7.82;;
15408;SDS011;7803;48.130;13.788;2022-10-17T11:50:23;9.32;;;8.43;;
15408;SDS011;7803;48.130;13.788;2022-10-17T11:53:30;9.18;;;8.27;;
15408;SDS011;7803;48.130;13.788;2022-10-17T11:56:45;8.55;;;7.75;;
15408;SDS011;7803;48.130;13.788;2022-10-17T11:59:54;9.00;;;8.20;;
15408;SDS011;7803;48.130;13.788;2022-10-17T12:03:11;9.23;;;8.43;;
15408;SDS011;7803;48.130;13.788;2022-10-17T12:06:35;8.73;;;7.93;;
15408;SDS011;7803;48.130;13.788;2022-10-17T12:09:45;9.10;;;8.20;;
15408;SDS011;7803;48.130;13.788;2022-10-17T12:12:52;9.15;;;8.35;;
15408;SDS011;7803;48.130;13.788;2022-10-17T12:15:54;9.57;;;8.05;;
15408;SDS011;7803;48.130;13.788;2022-10-17T12:19:12;10.27;;;9.27;;
15408;SDS011;7803;48.130;13.788;2022-10-17T12:22:29;9.38;;;8.48;;
15408;SDS011;7803;48.130;13.788;2022-10-17T12:25:32;8.65;;;7.85;;
15408;SDS011;7803;48.130;13.788;2022-10-17T12:28:40;9.05;;;8.25;;
15408;SDS011;7803;48.130;13.788;2022-10-17T12:31:43;8.85;;;8.05;;
15408;SDS011;7803;48.130;13.788;2022-10-17T12:34:51;9.50;;;8.70;;
15408;SDS011;7803;48.130;13.788;2022-10-17T12:44:53;9.23;;;8.43;;
15408;SDS011;7803;48.130;13.788;2022-10-17T12:47:55;8.70;;;7.90;;
15408;SDS011;7803;48.130;13.788;2022-10-17T12:51:01;9.80;;;8.85;;
15408;SDS011;7803;48.130;13.788;2022-10-17T12:54:09;8.82;;;8.02;;
15408;SDS011;7803;48.130;13.788;2022-10-17T12:57:13;8.93;;;8.02;;
15408;SDS011;7803;48.130;13.788;2022-10-17T13:00:22;9.27;;;8.38;;
15408;SDS011;7803;48.130;13.788;2022-10-17T13:03:30;9.38;;;8.45;;
15408;SDS011;7803;48.130;13.788;2022-10-17T13:06:35;9.15;;;8.25;;
15408;SDS011;7803;48.130;13.788;2022-10-17T13:09:41;9.63;;;8.63;;
15408;SDS011;7803;48.130;13.788;2022-10-17T13:12:44;9.50;;;8.50;;
15408;SDS011;7803;48.130;13.788;2022-10-17T13:15:48;9.43;;;8.48;;
15408;SDS011;7803;48.130;13.788;2022-10-17T13:18:51;9.35;;;8.45;;
15408;SDS011;7803;48.130;13.788;2022-10-17T13:21:54;8.98;;;8.07;;
15408;SDS011;7803;48.130;13.788;2022-10-17T13:25:07;9.05;;;8.25;;
15408;SDS011;7803;48.130;13.788;2022-10-17T13:28:14;9.23;;;8.43;;
15408;SDS011;7803;48.130;13.788;2022-10-17T13:31:25;9.23;;;8.43;;
15408;SDS011;7803;48.130;13.788;2022-10-17T13:34:31;9.00;;;8.20;;
15408;SDS011;7803;48.130;13.788;2022-10-17T13:37:34;9.30;;;8.40;;
15408;SDS011;7803;48.130;13.788;2022-10-17T13:40:38;9.55;;;8.65;;
15408;SDS011;7803;48.130;13.788;2022-10-17T13:43:42;8.82;;;8.13;;
15408;SDS011;7803;48.130;13.788;2022-10-17T13:46:44;9.55;;;8.70;;
15408;SDS011;7803;48.130;13.788;2022-10-17T13:49:47;8.98;;;8.20;;
15408;SDS011;7803;48.130;13.788;2022-10-17T13:53:04;9.35;;;8.45;;
15408;SDS011;7803;48.130;13.788;2022-10-17T13:56:16;9.45;;;8.55;;
15408;SDS011;7803;48.130;13.788;2022-10-17T13:59:20;9.05;;;8.20;;
15408;SDS011;7803;48.130;13.788;2022-10-17T14:02:24;8.88;;;8.07;;
15408;SDS011;7803;48.130;13.788;2022-10-17T14:05:27;9.43;;;8.55;;
15408;SDS011;7803;48.130;13.788;2022-10-17T14:08:30;10.10;;;9.10;;
15408;SDS011;7803;48.130;13.788;2022-10-17T14:11:36;9.10;;;8.30;;
15408;SDS011;7803;48.130;13.788;2022-10-17T14:14:39;8.43;;;7.63;;
15408;SDS011;7803;48.130;13.788;2022-10-17T14:17:52;9.45;;;8.55;;
15408;SDS011;7803;48.130;13.788;2022-10-17T14:20:56;9.05;;;8.15;;
15408;SDS011;7803;48.130;13.788;2022-10-17T14:24:11;9.65;;;8.75;;
15408;SDS011;7803;48.130;13.788;2022-10-17T14:27:29;8.82;;;8.02;;
15408;SDS011;7803;48.130;13.788;2022-10-17T14:30:34;9.00;;;8.20;;
15408;SDS011;7803;48.130;13.788;2022-10-17T14:33:37;9.43;;;8.55;;
15408;SDS011;7803;48.130;13.788;2022-10-17T14:36:44;8.85;;;8.05;;
15408;SDS011;7803;48.130;13.788;2022-10-17T14:39:50;8.77;;;8.07;;
15408;SDS011;7803;48.130;13.788;2022-10-17T14:42:56;9.38;;;8.48;;
15408;SDS011;7803;48.130;13.788;2022-10-17T14:45:59;9.05;;;8.20;;
15408;SDS011;7803;48.130;13.788;2022-10-17T14:49:04;8.77;;;7.97;;
15408;SDS011;7803;48.130;13.788;2022-10-17T14:52:26;8.45;;;7.70;;
15408;SDS011;7803;48.130;13.788;2022-10-17T14:55:30;9.13;;;8.32;;
15408;SDS011;7803;48.130;13.788;2022-10-17T14:58:35;8.38;;;7.68;;
15408;SDS011;7803;48.130;13.788;2022-10-17T15:01:37;8.93;;;8.07;;
15408;SDS011;7803;48.130;13.788;2022-10-17T15:04:39;9.52;;;8.63;;
15408;SDS011;7803;48.130;13.788;2022-10-17T15:07:41;8.43;;;7.72;;
15408;SDS011;7803;48.130;13.788;2022-10-17T15:10:44;8.98;;;8.18;;
15408;SDS011;7803;48.130;13.788;2022-10-17T15:13:48;9.05;;;8.25;;
15408;SDS011;7803;48.130;13.788;2022-10-17T15:16:50;8.88;;;8.07;;
15408;SDS011;7803;48.130;13.788;2022-10-17T15:19:53;8.88;;;8.10;;
15408;SDS011;7803;48.130;13.788;2022-10-17T15:22:55;8.93;;;8.13;;
15408;SDS011;7803;48.130;13.788;2022-10-17T15:25:58;9.02;;;8.23;;
15408;SDS011;7803;48.130;13.788;2022-10-17T15:29:02;8.98;;;8.18;;
15408;SDS011;7803;48.130;13.788;2022-10-17T15:32:04;9.70;;;8.70;;
15408;SDS011;7803;48.130;13.788;2022-10-17T15:35:07;9.18;;;8.23;;
15408;SDS011;7803;48.130;13.788;2022-10-17T15:38:10;9.50;;;8.60;;
15408;SDS011;7803;48.130;13.788;2022-10-17T15:41:13;8.95;;;8.05;;
15408;SDS011;7803;48.130;13.788;2022-10-17T15:44:16;9.55;;;8.60;;
15408;SDS011;7803;48.130;13.788;2022-10-17T15:47:21;9.43;;;8.48;;
15408;SDS011;7803;48.130;13.788;2022-10-17T15:50:25;9.55;;;8.65;;
15408;SDS011;7803;48.130;13.788;2022-10-17T15:53:29;9.25;;;8.45;;
15408;SDS011;7803;48.130;13.788;2022-10-17T15:56:32;9.07;;;8.27;;
15408;SDS011;7803;48.130;13.788;2022-10-17T15:59:37;8.77;;;7.90;;
15408;SDS011;7803;48.130;13.788;2022-10-17T16:02:39;9.00;;;8.20;;
15408;SDS011;7803;48.130;13.788;2022-10-17T16:05:41;9.10;;;8.20;;
15408;SDS011;7803;48.130;13.788;2022-10-17T16:08:43;9.00;;;8.20;;
15408;SDS011;7803;48.130;13.788;2022-10-17T16:11:45;9.30;;;8.40;;
15408;SDS011;7803;48.130;13.788;2022-10-17T16:14:49;9.77;;;7.97;;
15408;SDS011;7803;48.130;13.788;2022-10-17T16:17:51;9.95;;;8.95;;
15408;SDS011;7803;48.130;13.788;2022-10-17T16:20:54;9.55;;;8.52;;
15408;SDS011;7803;48.130;13.788;2022-10-17T16:23:56;9.40;;;8.50;;
15408;SDS011;7803;48.130;13.788;2022-10-17T16:26:59;9.80;;;8.90;;
15408;SDS011;7803;48.130;13.788;2022-10-17T16:30:03;9.38;;;8.48;;
15408;SDS011;7803;48.130;13.788;2022-10-17T16:33:07;9.55;;;8.57;;
15408;SDS011;7803;48.130;13.788;2022-10-17T16:36:09;9.57;;;8.43;;
15408;SDS011;7803;48.130;13.788;2022-10-17T16:39:11;9.38;;;8.48;;
15408;SDS011;7803;48.130;13.788;2022-10-17T16:42:13;10.30;;;9.30;;
15408;SDS011;7803;48.130;13.788;2022-10-17T16:45:17;10.93;;;9.07;;
15408;SDS011;7803;48.130;13.788;2022-10-17T16:48:21;9.38;;;8.48;;
15408;SDS011;7803;48.130;13.788;2022-10-17T16:51:23;10.15;;;9.05;;
15408;SDS011;7803;48.130;13.788;2022-10-17T16:54:28;9.52;;;8.63;;
15408;SDS011;7803;48.130;13.788;2022-10-17T16:57:30;10.63;;;8.63;;
15408;SDS011;7803;48.130;13.788;2022-10-17T17:00:33;9.80;;;8.90;;
15408;SDS011;7803;48.130;13.788;2022-10-17T17:03:35;10.85;;;8.80;;
15408;SDS011;7803;48.130;13.788;2022-10-17T17:06:38;10.00;;;9.02;;
15408;SDS011;7803;48.130;13.788;2022-10-17T17:09:42;10.70;;;9.20;;
15408;SDS011;7803;48.130;13.788;2022-10-17T17:12:45;9.73;;;8.80;;
15408;SDS011;7803;48.130;13.788;2022-10-17T17:15:49;12.68;;;9.40;;
15408;SDS011;7803;48.130;13.788;2022-10-17T17:18:54;11.02;;;9.77;;
15408;SDS011;7803;48.130;13.788;2022-10-17T17:22:00;10.15;;;9.00;;
15408;SDS011;7803;48.130;13.788;2022-10-17T17:25:02;11.10;;;8.75;;
15408;SDS011;7803;48.130;13.788;2022-10-17T17:28:06;12.30;;;9.23;;
15408;SDS011;7803;48.130;13.788;2022-10-17T17:31:10;12.15;;;8.90;;
15408;SDS011;7803;48.130;13.788;2022-10-17T17:34:14;9.63;;;8.63;;
15408;SDS011;7803;48.130;13.788;2022-10-17T17:37:16;10.40;;;9.30;;
15408;SDS011;7803;48.130;13.788;2022-10-17T17:40:19;9.38;;;8.48;;
15408;SDS011;7803;48.130;13.788;2022-10-17T17:43:22;9.90;;;8.90;;
15408;SDS011;7803;48.130;13.788;2022-10-17T17:46:26;10.23;;;9.10;;
15408;SDS011;7803;48.130;13.788;2022-10-17T17:49:28;10.80;;;8.85;;
15408;SDS011;7803;48.130;13.788;2022-10-17T17:52:31;10.95;;;9.07;;
15408;SDS011;7803;48.130;13.788;2022-10-17T17:55:33;9.60;;;8.60;;
15408;SDS011;7803;48.130;13.788;2022-10-17T17:58:37;10.00;;;9.05;;
15408;SDS011;7803;48.130;13.788;2022-10-17T18:01:41;10.15;;;9.10;;
15408;SDS011;7803;48.130;13.788;2022-10-17T18:04:44;10.10;;;8.70;;
15408;SDS011;7803;48.130;13.788;2022-10-17T18:07:47;10.32;;;9.23;;
15408;SDS011;7803;48.130;13.788;2022-10-17T18:10:50;10.27;;;9.10;;
15408;SDS011;7803;48.130;13.788;2022-10-17T18:13:58;9.73;;;8.82;;
15408;SDS011;7803;48.130;13.788;2022-10-17T18:17:04;10.35;;;8.93;;
15408;SDS011;7803;48.130;13.788;2022-10-17T18:20:07;9.68;;;8.77;;
15408;SDS011;7803;48.130;13.788;2022-10-17T18:23:10;10.57;;;9.20;;
15408;SDS011;7803;48.130;13.788;2022-10-17T18:26:13;10.00;;;9.00;;
15408;SDS011;7803;48.130;13.788;2022-10-17T18:29:17;10.02;;;9.13;;
15408;SDS011;7803;48.130;13.788;2022-10-17T18:32:22;9.48;;;8.57;;
15408;SDS011;7803;48.130;13.788;2022-10-17T18:35:25;10.30;;;9.32;;
15408;SDS011;7803;48.130;13.788;2022-10-17T18:38:29;9.45;;;8.55;;
15408;SDS011;7803;48.130;13.788;2022-10-17T18:41:32;9.98;;;8.98;;
15408;SDS011;7803;48.130;13.788;2022-10-17T18:44:35;10.32;;;9.32;;